Flight Briefing for CPX821

Departure Arrival
Patrick Air Force Base (KCOF)
Click to view FAA NOTAMS
Joint Base McGuire Dix Lakehurst (KWRI)
Click to view FAA NOTAMS
Departure Time Arrival Time
N/A N/A
Aircraft Distance
B757-200SF 768nm
Departure METAR Arrival METAR
KCOF 180556Z AUTO 20007KT 10SM CLR 22/22 A3003 RMK AO2 SLP174 T02200220 10233 20212 50002 $ KWRI 180556Z 08004KT 7SM OVC008 01/01 A2988 RMK AO2A RAE11RAB33E54 SLP119 P0003 60019 T00110010 10015 20003 55029 $
Suggested Route
APOLO ETECK AR18 DIW J174 SWL J121 SIE V44 PANZE V184 ZIGGI


View recent IFR Routes data
Notes
USTRANSCOM CONTRACT FLIGHT

Charts and Procedures

Charts for KCOF
No chart available
Charts for KWRI
No chart available

Ventusky Weather